Time;durP1;ratioP1;P1;durP2;ratioP2;P2;SDS_P1;SDS_P2;PMS_P1;PMS_P2;Temp;Humidity;BMP_temperature;BMP_pressure;BME280_temperature;BME280_humidity;BME280_pressure;Samples;Min_cycle;Max_cycle;Signal;HPM_P1;HPM_P2
2022/12/02 00:01:00;;;;;;;;;;;18.30;69.80;;;;;;4432349;32;20093;-80
2022/12/02 00:03:26;;;;;;;;;;;18.30;69.80;;;;;;4446210;32;19998;-79
2022/12/02 00:05:54;;;;;;;;;;;18.30;69.80;;;;;;4446129;32;20290;-80
2022/12/02 00:08:21;;;;;;;;;;;18.30;69.80;;;;;;4445909;32;20046;-80
2022/12/02 00:10:47;;;;;;;;;;;18.30;69.80;;;;;;4446255;32;20208;-80
2022/12/02 00:13:13;;;;;;;;;;;18.30;69.80;;;;;;4445893;32;19985;-80
2022/12/02 00:15:41;;;;;;;;;;;18.20;69.70;;;;;;4446052;32;19970;-80
2022/12/02 00:18:07;;;;;;;;;;;18.20;69.70;;;;;;4445893;32;20087;-82
2022/12/02 00:20:33;;;;;;;;;;;18.20;69.70;;;;;;4445983;32;20112;-80
2022/12/02 00:22:59;;;;;;;;;;;18.20;69.70;;;;;;4445781;32;19974;-81
2022/12/02 00:25:25;;;;;;;;;;;18.20;69.70;;;;;;4445966;32;19981;-81
2022/12/02 00:27:51;;;;;;;;;;;18.20;69.60;;;;;;4431434;32;19991;-81
2022/12/02 00:30:17;;;;;;;;;;;18.20;69.70;;;;;;4446046;32;19989;-81
2022/12/02 00:32:43;;;;;;;;;;;18.20;69.70;;;;;;4445851;32;19981;-80
2022/12/02 00:35:09;;;;;;;;;;;18.20;69.70;;;;;;4445771;32;19997;-80
2022/12/02 00:37:35;;;;;;;;;;;18.10;69.50;;;;;;4445527;32;19975;-80
2022/12/02 00:40:00;;;;;;;;;;;18.10;69.50;;;;;;4445375;32;19981;-80
2022/12/02 00:42:26;;;;;;;;;;;18.10;69.50;;;;;;4445898;32;20007;-80
2022/12/02 00:47:36;;;;;;;;;;;18.10;69.50;;;;;;4445691;32;20020;-80
2022/12/02 00:50:02;;;;;;;;;;;18.10;69.40;;;;;;4445419;32;19971;-80
2022/12/02 00:52:28;;;;;;;;;;;18.10;69.50;;;;;;4445386;32;20120;-81
2022/12/02 00:54:53;;;;;;;;;;;18.00;69.40;;;;;;4445802;32;19963;-80
2022/12/02 00:57:19;;;;;;;;;;;18.00;69.30;;;;;;4444404;32;19977;-80
2022/12/02 00:59:45;;;;;;;;;;;18.00;69.40;;;;;;4445365;32;19974;-80
2022/12/02 01:02:10;;;;;;;;;;;18.00;69.40;;;;;;4445370;32;19978;-82
2022/12/02 01:04:36;;;;;;;;;;;18.00;69.30;;;;;;4444478;32;20072;-80
2022/12/02 01:07:02;;;;;;;;;;;18.00;69.30;;;;;;4445895;32;19982;-80
2022/12/02 01:09:27;;;;;;;;;;;18.00;69.30;;;;;;4445286;32;19970;-80
2022/12/02 01:11:53;;;;;;;;;;;18.00;69.40;;;;;;4445503;32;19981;-80
2022/12/02 01:14:19;;;;;;;;;;;18.00;69.30;;;;;;4445248;32;20427;-81
2022/12/02 01:16:45;;;;;;;;;;;17.90;69.20;;;;;;4445488;32;19975;-80
2022/12/02 01:19:10;;;;;;;;;;;18.00;69.30;;;;;;4445478;32;20049;-82
2022/12/02 01:21:36;;;;;;;;;;;17.90;69.20;;;;;;4445614;32;20007;-80
2022/12/02 01:24:02;;;;;;;;;;;17.90;69.20;;;;;;4431350;32;20408;-81
2022/12/02 01:26:27;;;;;;;;;;;17.90;69.20;;;;;;4445260;32;20073;-80
2022/12/02 01:28:53;;;;;;;;;;;17.90;69.20;;;;;;4445244;32;19963;-81
2022/12/02 01:31:19;;;;;;;;;;;17.90;69.20;;;;;;4445219;32;19962;-81
2022/12/02 01:33:44;;;;;;;;;;;17.90;69.20;;;;;;4445491;32;20447;-81
2022/12/02 01:36:11;;;;;;;;;;;17.90;69.10;;;;;;4445450;32;20009;-82
2022/12/02 01:38:37;;;;;;;;;;;17.90;69.10;;;;;;4445391;32;20416;-83
2022/12/02 01:41:03;;;;;;;;;;;17.90;69.20;;;;;;4431571;32;19967;-80
2022/12/02 01:43:28;;;;;;;;;;;17.90;69.20;;;;;;4445379;32;19983;-81
2022/12/02 01:45:54;;;;;;;;;;;17.90;69.10;;;;;;4431333;32;20289;-81
2022/12/02 01:48:20;;;;;;;;;;;17.80;69.10;;;;;;4445367;32;19984;-81
2022/12/02 01:50:45;;;;;;;;;;;17.80;69.10;;;;;;4445419;32;19982;-81
2022/12/02 01:53:11;;;;;;;;;;;17.80;69.10;;;;;;4431398;32;20399;-83
2022/12/02 01:55:37;;;;;;;;;;;17.80;69.10;;;;;;4445391;32;19975;-81
2022/12/02 01:58:03;;;;;;;;;;;17.80;69.20;;;;;;4446468;32;19962;-82
2022/12/02 02:00:29;;;;;;;;;;;17.80;69.20;;;;;;4446082;32;19974;-81
2022/12/02 02:02:55;;;;;;;;;;;17.80;69.20;;;;;;4446062;32;20384;-81
2022/12/02 02:05:25;;;;;;;;;;;17.80;69.20;;;;;;4448741;32;20367;-81
2022/12/02 02:07:52;;;;;;;;;;;17.80;69.20;;;;;;4448377;32;19982;-81
2022/12/02 02:10:18;;;;;;;;;;;17.80;69.20;;;;;;4449031;32;19983;-81
2022/12/02 02:12:44;;;;;;;;;;;17.70;69.20;;;;;;4449156;32;20428;-81
2022/12/02 02:15:11;;;;;;;;;;;17.70;69.20;;;;;;4449068;32;19974;-81
2022/12/02 02:17:37;;;;;;;;;;;17.70;69.20;;;;;;4448495;32;20021;-81
2022/12/02 02:20:04;;;;;;;;;;;17.70;69.10;;;;;;4448469;32;19966;-81
2022/12/02 02:22:37;;;;;;;;;;;17.70;70.00;;;;;;4448928;32;19982;-81
2022/12/02 02:25:11;;;;;;;;;;;17.70;69.20;;;;;;4449146;32;19991;-81
2022/12/02 02:27:36;;;;;;;;;;;17.70;69.10;;;;;;4449435;32;20133;-81
2022/12/02 02:30:03;;;;;;;;;;;17.70;69.20;;;;;;4448825;32;20399;-81
2022/12/02 02:32:28;;;;;;;;;;;17.70;69.20;;;;;;4434731;32;19981;-81
2022/12/02 02:34:54;;;;;;;;;;;17.70;69.10;;;;;;4434578;32;19971;-81
2022/12/02 02:37:20;;;;;;;;;;;17.70;69.20;;;;;;4448367;32;19986;-81
2022/12/02 02:39:46;;;;;;;;;;;17.60;69.10;;;;;;4448780;32;20360;-81
2022/12/02 02:42:12;;;;;;;;;;;17.60;69.10;;;;;;4448850;32;20072;-81
2022/12/02 02:44:37;;;;;;;;;;;17.60;69.10;;;;;;4448720;32;19967;-81
2022/12/02 02:47:03;;;;;;;;;;;17.60;69.10;;;;;;4448546;32;20033;-81
2022/12/02 02:49:29;;;;;;;;;;;17.60;69.10;;;;;;4448244;32;20391;-81
2022/12/02 02:51:54;;;;;;;;;;;17.60;69.10;;;;;;4434331;32;19975;-81
2022/12/02 02:54:20;;;;;;;;;;;17.60;69.00;;;;;;4447360;32;19984;-80
2022/12/02 02:56:46;;;;;;;;;;;17.60;69.10;;;;;;4446920;32;19967;-81
2022/12/02 02:59:12;;;;;;;;;;;17.60;69.10;;;;;;4447212;32;20104;-81
2022/12/02 03:01:38;;;;;;;;;;;17.50;69.00;;;;;;4433355;32;20115;-81
2022/12/02 03:04:06;;;;;;;;;;;17.60;69.00;;;;;;4446934;32;20085;-81
2022/12/02 03:06:33;;;;;;;;;;;17.50;69.00;;;;;;4447470;32;19982;-81
2022/12/02 03:08:59;;;;;;;;;;;17.50;69.00;;;;;;4446968;32;19974;-81
2022/12/02 03:11:26;;;;;;;;;;;17.50;69.00;;;;;;4446875;32;20108;-81
2022/12/02 03:13:52;;;;;;;;;;;17.50;69.00;;;;;;4446952;32;20097;-81
2022/12/02 03:16:19;;;;;;;;;;;17.50;68.90;;;;;;4446847;32;19986;-81
2022/12/02 03:18:45;;;;;;;;;;;17.50;68.90;;;;;;4446897;32;20402;-81
2022/12/02 03:21:12;;;;;;;;;;;17.50;69.00;;;;;;4446969;32;20323;-81
2022/12/02 03:23:38;;;;;;;;;;;17.50;68.90;;;;;;4446665;32;20089;-81
2022/12/02 03:26:04;;;;;;;;;;;17.50;68.90;;;;;;4447140;32;20092;-81
2022/12/02 03:28:31;;;;;;;;;;;17.50;68.90;;;;;;4446830;32;19993;-81
2022/12/02 03:30:56;;;;;;;;;;;17.50;68.90;;;;;;4446677;32;20088;-81
2022/12/02 03:33:23;;;;;;;;;;;17.50;68.90;;;;;;4446709;32;19979;-81
2022/12/02 03:35:48;;;;;;;;;;;17.50;68.90;;;;;;4446753;32;19990;-81
2022/12/02 03:38:15;;;;;;;;;;;17.40;68.80;;;;;;4446593;32;20400;-83
2022/12/02 03:40:41;;;;;;;;;;;17.40;68.80;;;;;;4446628;32;20305;-81
2022/12/02 03:43:07;;;;;;;;;;;17.40;68.80;;;;;;4446466;32;20061;-82
2022/12/02 03:45:34;;;;;;;;;;;17.40;68.80;;;;;;4446403;32;19981;-82
2022/12/02 03:48:00;;;;;;;;;;;17.40;68.80;;;;;;4432527;32;19982;-82
2022/12/02 03:50:26;;;;;;;;;;;17.40;68.80;;;;;;4446338;32;19978;-83
2022/12/02 03:52:52;;;;;;;;;;;17.40;68.80;;;;;;4446390;32;19977;-82
2022/12/02 03:55:18;;;;;;;;;;;17.40;68.80;;;;;;4432611;32;19978;-82
2022/12/02 03:57:43;;;;;;;;;;;17.40;68.80;;;;;;4446200;32;20103;-82
2022/12/02 04:00:10;;;;;;;;;;;17.40;69.70;;;;;;4446160;32;19986;-82
2022/12/02 04:02:36;;;;;;;;;;;17.40;68.80;;;;;;4446238;32;19974;-82
2022/12/02 04:05:01;;;;;;;;;;;17.40;68.70;;;;;;4444830;32;19983;-83
2022/12/02 04:07:27;;;;;;;;;;;17.40;68.80;;;;;;4446163;32;20003;-82
2022/12/02 04:09:53;;;;;;;;;;;17.30;68.80;;;;;;4446260;32;20021;-82
2022/12/02 04:12:18;;;;;;;;;;;17.40;68.80;;;;;;4446085;32;19982;-82
2022/12/02 04:14:44;;;;;;;;;;;17.30;68.70;;;;;;4446012;32;19966;-82
2022/12/02 04:17:10;;;;;;;;;;;17.30;68.70;;;;;;4446155;32;19993;-82
2022/12/02 04:19:35;;;;;;;;;;;17.30;68.70;;;;;;4445833;32;19962;-82
2022/12/02 04:22:01;;;;;;;;;;;17.30;69.60;;;;;;4444953;32;20108;-82
2022/12/02 04:24:27;;;;;;;;;;;17.30;68.70;;;;;;4445771;32;20417;-82
2022/12/02 04:26:53;;;;;;;;;;;17.30;68.70;;;;;;4445257;32;20391;-82
2022/12/02 04:29:19;;;;;;;;;;;17.30;68.70;;;;;;4445770;32;19975;-82
2022/12/02 04:31:44;;;;;;;;;;;17.30;68.70;;;;;;4445866;32;19977;-82
2022/12/02 04:34:10;;;;;;;;;;;17.20;68.60;;;;;;4445878;32;20039;-82
2022/12/02 04:36:36;;;;;;;;;;;17.30;68.60;;;;;;4432072;32;20077;-82
2022/12/02 04:39:02;;;;;;;;;;;17.20;68.60;;;;;;4445832;32;19983;-82
2022/12/02 04:41:28;;;;;;;;;;;17.20;68.60;;;;;;4431739;32;19966;-82
2022/12/02 04:43:54;;;;;;;;;;;17.20;68.60;;;;;;4431614;32;20369;-82
2022/12/02 04:46:20;;;;;;;;;;;17.20;68.60;;;;;;4445790;32;20320;-84
2022/12/02 04:48:45;;;;;;;;;;;17.20;68.60;;;;;;4445482;32;20282;-82
2022/12/02 04:51:11;;;;;;;;;;;17.30;68.60;;;;;;4445726;32;19978;-82
2022/12/02 04:53:37;;;;;;;;;;;17.20;68.60;;;;;;4444355;32;20037;-84
2022/12/02 05:01:13;;;;;;;;;;;17.20;68.60;;;;;;4184569;26;20030;-83
2022/12/02 05:03:39;;;;;;;;;;;17.20;68.60;;;;;;4441422;32;19994;-82
2022/12/02 05:06:04;;;;;;;;;;;17.30;68.50;;;;;;4442528;32;20472;-84
2022/12/02 05:08:30;;;;;;;;;;;17.30;68.60;;;;;;4439706;32;20309;-82
2022/12/02 05:10:56;;;;;;;;;;;17.30;68.40;;;;;;4428575;32;20053;-82
2022/12/02 05:13:21;;;;;;;;;;;17.30;68.40;;;;;;4440803;32;20089;-82
2022/12/02 05:15:47;;;;;;;;;;;17.30;68.40;;;;;;4442522;32;20117;-82
2022/12/02 05:18:13;;;;;;;;;;;17.40;68.30;;;;;;4441882;32;20062;-82
2022/12/02 05:20:38;;;;;;;;;;;17.40;68.30;;;;;;4429383;32;20104;-83
2022/12/02 05:23:04;;;;;;;;;;;17.40;68.20;;;;;;4441974;32;20041;-82
2022/12/02 05:25:30;;;;;;;;;;;17.40;68.10;;;;;;4442070;32;20292;-82
2022/12/02 05:27:55;;;;;;;;;;;17.40;68.10;;;;;;4442289;32;20523;-82
2022/12/02 05:30:21;;;;;;;;;;;17.40;68.00;;;;;;4442931;32;19970;-83
2022/12/02 05:32:47;;;;;;;;;;;17.40;68.00;;;;;;4435861;32;20430;-82
2022/12/02 05:35:12;;;;;;;;;;;17.40;68.80;;;;;;4441175;32;20046;-82
2022/12/02 05:37:38;;;;;;;;;;;17.40;67.90;;;;;;4443086;32;20049;-82
2022/12/02 05:40:05;;;;;;;;;;;17.40;67.90;;;;;;4443961;32;19983;-82
2022/12/02 05:42:32;;;;;;;;;;;17.40;67.90;;;;;;4431615;32;20040;-82
2022/12/02 05:44:59;;;;;;;;;;;17.40;67.90;;;;;;4444833;32;19991;-82
2022/12/02 05:47:27;;;;;;;;;;;17.40;67.90;;;;;;4446813;32;19982;-82
2022/12/02 05:49:52;;;;;;;;;;;17.40;67.90;;;;;;4443410;32;19970;-83
2022/12/02 05:52:18;;;;;;;;;;;17.40;67.80;;;;;;4441266;32;20006;-82
2022/12/02 05:54:44;;;;;;;;;;;17.40;67.80;;;;;;4443479;32;19985;-82
2022/12/02 05:57:10;;;;;;;;;;;17.40;67.90;;;;;;4439261;32;19971;-82
2022/12/02 05:59:35;;;;;;;;;;;17.40;67.70;;;;;;4445530;32;19971;-82
2022/12/02 06:02:01;;;;;;;;;;;17.50;67.80;;;;;;4445185;32;19998;-82
2022/12/02 06:04:31;;;;;;;;;;;17.50;67.80;;;;;;4445421;32;19974;-82
2022/12/02 06:07:01;;;;;;;;;;;17.50;67.70;;;;;;4444273;32;20049;-82
2022/12/02 06:09:29;;;;;;;;;;;17.50;67.70;;;;;;4439904;32;20014;-82
2022/12/02 06:11:55;;;;;;;;;;;17.50;67.70;;;;;;4433944;32;20004;-82
2022/12/02 06:14:23;;;;;;;;;;;17.50;67.70;;;;;;4439041;32;19975;-82
2022/12/02 06:16:53;;;;;;;;;;;17.50;67.70;;;;;;4437434;32;19989;-82
2022/12/02 06:19:20;;;;;;;;;;;17.50;67.60;;;;;;4430734;32;19975;-82
2022/12/02 06:21:46;;;;;;;;;;;17.50;67.60;;;;;;4441188;32;20432;-82
2022/12/02 06:24:12;;;;;;;;;;;17.50;67.50;;;;;;4447086;32;20112;-82
2022/12/02 06:26:38;;;;;;;;;;;17.50;67.50;;;;;;4447070;32;19973;-82
2022/12/02 06:29:04;;;;;;;;;;;17.50;67.50;;;;;;4447153;32;20021;-82
2022/12/02 06:31:37;;;;;;;;;;;17.50;67.40;;;;;;4447345;32;19981;-82
2022/12/02 06:34:22;;;;;;;;;;;17.50;67.40;;;;;;4447108;32;20018;-82
2022/12/02 06:36:48;;;;;;;;;;;17.50;67.40;;;;;;4447260;32;19988;-82
2022/12/02 06:39:20;;;;;;;;;;;17.50;67.50;;;;;;4446770;32;20022;-82
2022/12/02 06:41:47;;;;;;;;;;;17.50;67.50;;;;;;4447137;32;20099;-82
2022/12/02 06:47:23;;;;;;;;;;;17.50;67.50;;;;;;4447177;32;20404;-82
2022/12/02 06:49:49;;;;;;;;;;;17.40;67.40;;;;;;4446456;32;20383;-82
2022/12/02 06:52:19;;;;;;;;;;;17.40;67.40;;;;;;4446918;32;20053;-83
2022/12/02 06:54:45;;;;;;;;;;;17.40;67.40;;;;;;4446958;32;19966;-82
2022/12/02 06:57:11;;;;;;;;;;;17.40;67.40;;;;;;4446646;32;19982;-82
2022/12/02 06:59:36;;;;;;;;;;;17.40;67.40;;;;;;4446362;32;19970;-83
2022/12/02 07:02:15;;;;;;;;;;;17.40;67.40;;;;;;4446807;32;19981;-82
2022/12/02 07:04:44;;;;;;;;;;;17.40;67.50;;;;;;4446861;32;19989;-82
2022/12/02 07:07:12;;;;;;;;;;;17.40;67.40;;;;;;4446798;32;20450;-82
2022/12/02 07:09:42;;;;;;;;;;;17.40;67.40;;;;;;4446696;32;19982;-82
2022/12/02 07:12:28;;;;;;;;;;;17.40;67.40;;;;;;4436272;32;20029;-83
2022/12/02 07:14:55;;;;;;;;;;;17.40;67.40;;;;;;4446091;32;20052;-82
2022/12/02 07:17:23;;;;;;;;;;;17.40;67.40;;;;;;4446613;32;20044;-82
2022/12/02 07:19:53;;;;;;;;;;;17.40;67.40;;;;;;4446468;32;19975;-82
2022/12/02 07:22:23;;;;;;;;;;;17.40;67.40;;;;;;4446537;32;19990;-81
2022/12/02 07:25:04;;;;;;;;;;;17.40;67.40;;;;;;4446427;32;19993;-82
2022/12/02 07:27:31;;;;;;;;;;;17.30;67.40;;;;;;4445949;32;20096;-80
2022/12/02 07:29:57;;;;;;;;;;;17.30;67.40;;;;;;4446441;32;20100;-81
2022/12/02 07:32:23;;;;;;;;;;;17.40;67.40;;;;;;4446196;32;20129;-81
2022/12/02 07:34:49;;;;;;;;;;;17.30;67.40;;;;;;4446516;32;20392;-82
2022/12/02 07:37:14;;;;;;;;;;;17.30;67.30;;;;;;4432142;32;19963;-81
2022/12/02 07:39:40;;;;;;;;;;;17.30;67.30;;;;;;4445995;32;20052;-80
2022/12/02 07:42:06;;;;;;;;;;;17.40;67.30;;;;;;4446193;32;19993;-80
2022/12/02 07:44:32;;;;;;;;;;;17.30;67.20;;;;;;4445998;32;19971;-80
2022/12/02 07:46:58;;;;;;;;;;;17.30;67.30;;;;;;4446222;32;20112;-79
2022/12/02 07:49:23;;;;;;;;;;;17.30;67.30;;;;;;4446049;32;20033;-79
2022/12/02 07:51:49;;;;;;;;;;;17.30;67.20;;;;;;4445038;32;20136;-81
2022/12/02 07:54:15;;;;;;;;;;;17.30;67.20;;;;;;4446070;32;20001;-80
2022/12/02 07:56:41;;;;;;;;;;;17.30;67.10;;;;;;4445441;32;19964;-80
2022/12/02 07:59:07;;;;;;;;;;;17.30;67.10;;;;;;4431951;32;19978;-80
2022/12/02 08:01:32;;;;;;;;;;;17.30;67.10;;;;;;4444987;32;20037;-80
2022/12/02 08:03:58;;;;;;;;;;;17.30;67.20;;;;;;4445824;32;19974;-80
2022/12/02 08:06:23;;;;;;;;;;;17.30;67.10;;;;;;4445596;32;20374;-80
2022/12/02 08:08:49;;;;;;;;;;;17.30;67.20;;;;;;4445941;32;20391;-80
2022/12/02 08:11:15;;;;;;;;;;;17.30;67.10;;;;;;4445858;32;20308;-80
2022/12/02 08:13:40;;;;;;;;;;;17.20;67.00;;;;;;4445171;32;20368;-77
2022/12/02 08:16:07;;;;;;;;;;;17.20;67.00;;;;;;4445289;32;20056;-79
2022/12/02 08:18:33;;;;;;;;;;;17.20;67.70;;;;;;4445460;32;19978;-81
2022/12/02 08:20:59;;;;;;;;;;;17.20;67.60;;;;;;4445363;32;20545;-80
2022/12/02 08:23:24;;;;;;;;;;;17.20;68.00;;;;;;4445573;32;19978;-80
2022/12/02 08:25:50;;;;;;;;;;;17.20;68.50;;;;;;4445162;32;20435;-81
2022/12/02 08:28:16;;;;;;;;;;;17.30;68.80;;;;;;4445711;32;20056;-81
2022/12/02 08:30:42;;;;;;;;;;;17.30;68.30;;;;;;4445402;32;20442;-80
2022/12/02 08:33:07;;;;;;;;;;;17.40;68.10;;;;;;4445393;32;20002;-81
2022/12/02 08:35:33;;;;;;;;;;;17.50;67.70;;;;;;4444506;32;19963;-80
2022/12/02 08:37:59;;;;;;;;;;;17.70;67.20;;;;;;4428640;32;20022;-82
2022/12/02 08:40:24;;;;;;;;;;;17.80;66.80;;;;;;4438727;32;19985;-82
2022/12/02 08:42:51;;;;;;;;;;;18.00;66.40;;;;;;4445220;32;19975;-82
2022/12/02 08:45:16;;;;;;;;;;;18.20;66.10;;;;;;4445562;32;19966;-81
2022/12/02 08:47:42;;;;;;;;;;;18.30;65.60;;;;;;4445283;32;19970;-82
2022/12/02 08:50:08;;;;;;;;;;;18.40;65.20;;;;;;4445500;32;20136;-81
2022/12/02 08:52:34;;;;;;;;;;;18.60;64.90;;;;;;4445256;32;20148;-82
2022/12/02 08:54:59;;;;;;;;;;;18.70;64.50;;;;;;4445142;32;20033;-80
2022/12/02 08:57:25;;;;;;;;;;;18.80;64.20;;;;;;4445077;32;19993;-81
2022/12/02 08:59:51;;;;;;;;;;;18.90;63.90;;;;;;4444993;32;19981;-80
2022/12/02 09:02:17;;;;;;;;;;;19.00;63.60;;;;;;4437730;32;22151;-80
2022/12/02 09:04:42;;;;;;;;;;;19.20;63.40;;;;;;4440643;32;19995;-81
2022/12/02 09:07:08;;;;;;;;;;;19.20;63.20;;;;;;4439881;32;20012;-80
2022/12/02 09:09:34;;;;;;;;;;;19.30;63.10;;;;;;4438460;32;20152;-80
2022/12/02 09:12:00;;;;;;;;;;;19.30;62.90;;;;;;4432481;32;20052;-79
2022/12/02 09:14:25;;;;;;;;;;;19.40;62.90;;;;;;4440116;32;20089;-81
2022/12/02 09:16:51;;;;;;;;;;;19.40;62.90;;;;;;4437350;32;19978;-79
2022/12/02 09:19:17;;;;;;;;;;;19.40;62.90;;;;;;4433770;32;19970;-80
2022/12/02 09:21:42;;;;;;;;;;;19.40;62.90;;;;;;4447798;32;19977;-80
2022/12/02 09:24:08;;;;;;;;;;;19.40;62.90;;;;;;4447572;32;19978;-80
2022/12/02 09:26:33;;;;;;;;;;;19.50;62.90;;;;;;4447161;32;20486;-80
2022/12/02 09:28:59;;;;;;;;;;;19.50;62.90;;;;;;4447577;32;19966;-80
2022/12/02 09:31:25;;;;;;;;;;;19.50;62.90;;;;;;4433629;32;20395;-79
2022/12/02 09:33:50;;;;;;;;;;;19.50;62.90;;;;;;4447716;32;20130;-79
2022/12/02 09:36:16;;;;;;;;;;;19.50;62.90;;;;;;4447068;32;19966;-80
2022/12/02 09:38:42;;;;;;;;;;;19.50;62.90;;;;;;4447528;32;19982;-79
2022/12/02 09:41:07;;;;;;;;;;;19.50;62.80;;;;;;4447451;32;19990;-80
2022/12/02 09:43:34;;;;;;;;;;;19.50;62.70;;;;;;4447680;32;20481;-79
2022/12/02 09:46:00;;;;;;;;;;;19.50;62.70;;;;;;4447156;32;19987;-79
2022/12/02 09:48:27;;;;;;;;;;;19.50;62.80;;;;;;4447384;32;20109;-79
2022/12/02 09:50:53;;;;;;;;;;;19.50;63.70;;;;;;4446219;32;19985;-79
2022/12/02 09:53:19;;;;;;;;;;;19.50;62.70;;;;;;4447250;32;19970;-83
2022/12/02 09:55:44;;;;;;;;;;;19.50;62.80;;;;;;4446126;32;20038;-79
2022/12/02 09:58:14;;;;;;;;;;;19.50;62.90;;;;;;4445232;32;19975;-78
2022/12/02 10:00:40;;;;;;;;;;;19.50;63.00;;;;;;4446302;32;20007;-79
2022/12/02 10:03:07;;;;;;;;;;;19.50;63.10;;;;;;4423761;32;20048;-79
2022/12/02 10:05:33;;;;;;;;;;;19.50;63.10;;;;;;4444153;32;20442;-79
2022/12/02 10:07:59;;;;;;;;;;;19.50;63.20;;;;;;4438490;32;20013;-79
2022/12/02 10:10:26;;;;;;;;;;;19.50;63.30;;;;;;4442769;32;20384;-79
2022/12/02 10:12:53;;;;;;;;;;;19.60;63.40;;;;;;4444027;32;20006;-80
2022/12/02 10:15:22;;;;;;;;;;;19.60;63.30;;;;;;4440506;32;20400;-81
2022/12/02 10:17:48;;;;;;;;;;;19.60;63.40;;;;;;4439855;32;20042;-83
2022/12/02 10:20:18;;;;;;;;;;;19.60;63.30;;;;;;4439281;32;20413;-80
2022/12/02 10:23:03;;;;;;;;;;;19.60;63.30;;;;;;4441877;32;20494;-79
2022/12/02 10:25:29;;;;;;;;;;;19.60;63.30;;;;;;4437477;32;20041;-82
2022/12/02 10:27:55;;;;;;;;;;;19.70;63.30;;;;;;4440404;32;19975;-79
2022/12/02 10:30:23;;;;;;;;;;;19.60;63.30;;;;;;4444398;32;20145;-80
2022/12/02 10:33:15;;;;;;;;;;;19.70;63.30;;;;;;4436673;32;20499;-80
2022/12/02 10:35:48;;;;;;;;;;;19.70;63.30;;;;;;4436245;32;19998;-80
2022/12/02 10:38:29;;;;;;;;;;;19.70;63.30;;;;;;4441409;32;20050;-79
2022/12/02 10:41:10;;;;;;;;;;;19.60;63.30;;;;;;4443923;32;20033;-80
2022/12/02 10:43:36;;;;;;;;;;;19.70;63.30;;;;;;4439979;32;19971;-79
2022/12/02 10:46:02;;;;;;;;;;;19.70;63.30;;;;;;4434223;32;20001;-78
2022/12/02 10:48:28;;;;;;;;;;;19.70;63.30;;;;;;4434622;32;20006;-76
2022/12/02 10:50:54;;;;;;;;;;;19.70;63.40;;;;;;4430857;32;20392;-79
2022/12/02 10:53:24;;;;;;;;;;;19.70;63.30;;;;;;4433952;32;19994;-75
2022/12/02 10:55:50;;;;;;;;;;;19.70;63.30;;;;;;4435344;32;19990;-75
2022/12/02 10:58:23;;;;;;;;;;;19.70;63.30;;;;;;4435578;32;20001;-76
2022/12/02 11:00:49;;;;;;;;;;;19.70;63.30;;;;;;4435301;32;19983;-79
2022/12/02 11:03:15;;;;;;;;;;;19.70;63.30;;;;;;4435875;32;20013;-79
2022/12/02 11:05:41;;;;;;;;;;;19.70;63.30;;;;;;4413597;32;20063;-83
2022/12/02 11:08:06;;;;;;;;;;;19.70;63.40;;;;;;4437302;32;20778;-83
2022/12/02 11:10:39;;;;;;;;;;;19.70;63.60;;;;;;4424012;32;20029;-83
2022/12/02 11:13:25;;;;;;;;;;;19.60;63.40;;;;;;4442492;32;20065;-80
2022/12/02 11:15:51;;;;;;;;;;;19.70;63.50;;;;;;4442786;32;19986;-84
2022/12/02 11:18:29;;;;;;;;;;;19.60;63.70;;;;;;4433755;32;20010;-83
2022/12/02 11:21:14;;;;;;;;;;;19.50;63.80;;;;;;4426942;32;20088;-82
2022/12/02 11:23:40;;;;;;;;;;;19.50;64.00;;;;;;4436447;32;20024;-84
2022/12/02 11:26:10;;;;;;;;;;;19.40;64.10;;;;;;4445331;32;20675;-85
2022/12/02 11:28:46;;;;;;;;;;;19.40;64.20;;;;;;4445993;32;19986;-85
2022/12/02 11:31:13;;;;;;;;;;;19.40;64.30;;;;;;4445790;32;20402;-83
2022/12/02 11:33:47;;;;;;;;;;;19.50;64.30;;;;;;4445999;32;20346;-87
2022/12/02 11:36:15;;;;;;;;;;;19.50;64.20;;;;;;4445748;32;20316;-83
2022/12/02 11:38:47;;;;;;;;;;;19.50;64.10;;;;;;4445792;32;20021;-82
2022/12/02 11:41:13;;;;;;;;;;;19.60;64.10;;;;;;4441562;32;19986;-84
2022/12/02 11:43:46;;;;;;;;;;;19.70;64.10;;;;;;4443633;32;20131;-75
2022/12/02 11:46:12;;;;;;;;;;;19.70;64.00;;;;;;4440987;32;20038;-83
2022/12/02 11:48:55;;;;;;;;;;;19.70;63.90;;;;;;4443145;32;19970;-86
2022/12/02 11:51:41;;;;;;;;;;;19.70;63.80;;;;;;4439626;32;20037;-87
2022/12/02 11:54:14;;;;;;;;;;;19.70;63.70;;;;;;4431089;32;20027;-85
2022/12/02 11:56:41;;;;;;;;;;;19.80;63.60;;;;;;4438092;32;19983;-82
2022/12/02 11:59:24;;;;;;;;;;;19.80;63.60;;;;;;4441777;32;19978;-88
2022/12/02 12:01:50;;;;;;;;;;;19.80;63.50;;;;;;4415799;32;20077;-87
2022/12/02 12:04:24;;;;;;;;;;;19.80;63.50;;;;;;4428677;32;20331;-87
2022/12/02 12:06:57;;;;;;;;;;;19.80;63.50;;;;;;4416207;32;19990;-86
2022/12/02 12:09:23;;;;;;;;;;;19.80;63.50;;;;;;4429089;32;19983;-84
2022/12/02 12:12:07;;;;;;;;;;;19.80;63.50;;;;;;4416169;32;20002;-84
2022/12/02 12:14:33;;;;;;;;;;;19.80;63.50;;;;;;4424300;32;19978;-88
2022/12/02 12:17:21;;;;;;;;;;;19.70;63.60;;;;;;4416013;32;19977;-80
2022/12/02 12:19:47;;;;;;;;;;;19.70;63.60;;;;;;4428976;32;20384;-84
2022/12/02 12:22:23;;;;;;;;;;;19.70;63.70;;;;;;4429544;32;19978;-79
2022/12/02 12:24:48;;;;;;;;;;;19.60;63.80;;;;;;4428958;32;20045;-77
2022/12/02 12:27:33;;;;;;;;;;;19.60;63.80;;;;;;4429404;32;20184;-84
2022/12/02 12:29:59;;;;;;;;;;;19.60;63.90;;;;;;4415997;32;19978;-84
2022/12/02 12:32:24;;;;;;;;;;;19.50;63.90;;;;;;4429878;32;20029;-81
2022/12/02 12:34:50;;;;;;;;;;;19.50;63.90;;;;;;4430119;32;19967;-82
2022/12/02 12:37:16;;;;;;;;;;;19.50;63.90;;;;;;4429957;32;20073;-82
2022/12/02 12:39:42;;;;;;;;;;;19.40;63.90;;;;;;4429781;32;19986;-82
2022/12/02 12:42:07;;;;;;;;;;;19.40;63.90;;;;;;4430060;32;20003;-88
2022/12/02 12:44:34;;;;;;;;;;;19.40;63.90;;;;;;4430039;32;20401;-84
2022/12/02 12:47:01;;;;;;;;;;;19.40;63.90;;;;;;4429160;32;19985;-79
2022/12/02 12:49:26;;;;;;;;;;;19.40;63.90;;;;;;4429524;32;19993;-84
2022/12/02 12:51:52;;;;;;;;;;;19.40;63.90;;;;;;4429979;32;19983;-82
2022/12/02 12:54:18;;;;;;;;;;;19.40;63.90;;;;;;4429642;32;19971;-85
2022/12/02 12:56:43;;;;;;;;;;;19.30;63.90;;;;;;4429253;32;19967;-86
2022/12/02 12:59:09;;;;;;;;;;;19.30;63.80;;;;;;4429460;32;19998;-86
2022/12/02 13:01:36;;;;;;;;;;;19.40;63.90;;;;;;4441366;32;20097;-86
2022/12/02 13:04:02;;;;;;;;;;;19.30;63.80;;;;;;4442976;32;19974;-81
2022/12/02 13:06:28;;;;;;;;;;;19.30;63.80;;;;;;4443600;32;19989;-89
2022/12/02 13:08:54;;;;;;;;;;;19.30;63.80;;;;;;4443586;32;19975;-83
2022/12/02 13:11:19;;;;;;;;;;;19.30;63.80;;;;;;4444046;32;20112;-85
2022/12/02 13:13:45;;;;;;;;;;;19.30;63.70;;;;;;4443316;32;20018;-85
2022/12/02 13:16:10;;;;;;;;;;;19.30;63.70;;;;;;4444523;32;20049;-82
2022/12/02 13:18:36;;;;;;;;;;;19.30;63.60;;;;;;4443686;32;19971;-86
2022/12/02 13:21:02;;;;;;;;;;;19.30;63.60;;;;;;4429082;32;19979;-83
2022/12/02 13:23:28;;;;;;;;;;;19.30;63.60;;;;;;4443936;32;19970;-82
2022/12/02 13:25:54;;;;;;;;;;;19.30;63.60;;;;;;4442208;32;20006;-82
2022/12/02 13:28:19;;;;;;;;;;;19.30;63.60;;;;;;4443576;32;20038;-81
2022/12/02 13:30:45;;;;;;;;;;;19.30;63.60;;;;;;4443307;32;19990;-81
2022/12/02 13:33:11;;;;;;;;;;;19.30;63.60;;;;;;4444516;32;19982;-80
2022/12/02 13:35:37;;;;;;;;;;;19.30;63.60;;;;;;4444217;32;19971;-83
2022/12/02 13:38:02;;;;;;;;;;;19.30;63.50;;;;;;4443560;32;19975;-83
2022/12/02 13:40:28;;;;;;;;;;;19.30;63.60;;;;;;4443867;32;19975;-83
2022/12/02 13:42:54;;;;;;;;;;;19.30;63.60;;;;;;4442399;32;19975;-81
2022/12/02 13:45:20;;;;;;;;;;;19.30;63.60;;;;;;4443160;32;20070;-81
2022/12/02 13:47:46;;;;;;;;;;;19.20;63.50;;;;;;4442680;32;19962;-81
2022/12/02 13:50:12;;;;;;;;;;;19.30;63.60;;;;;;4443164;32;20052;-83
2022/12/02 13:52:37;;;;;;;;;;;19.30;63.60;;;;;;4443990;32;19986;-83
2022/12/02 13:55:03;;;;;;;;;;;19.30;63.60;;;;;;4442294;32;20057;-81
2022/12/02 13:57:29;;;;;;;;;;;19.30;63.60;;;;;;4442409;32;20317;-84
2022/12/02 13:59:55;;;;;;;;;;;19.30;63.50;;;;;;4442794;32;19982;-84
2022/12/02 14:02:20;;;;;;;;;;;19.30;63.50;;;;;;4445838;32;19975;-81
2022/12/02 14:04:46;;;;;;;;;;;19.30;63.60;;;;;;4444349;32;19989;-78
2022/12/02 14:07:12;;;;;;;;;;;19.30;63.60;;;;;;4444561;32;20018;-86
2022/12/02 14:09:37;;;;;;;;;;;19.30;63.60;;;;;;4445436;32;20316;-81
2022/12/02 14:12:03;;;;;;;;;;;19.30;63.60;;;;;;4444422;32;19975;-83
2022/12/02 14:14:29;;;;;;;;;;;19.30;63.50;;;;;;4446283;32;19978;-83
2022/12/02 14:16:54;;;;;;;;;;;19.30;63.50;;;;;;4445689;32;20403;-84
2022/12/02 14:19:20;;;;;;;;;;;19.30;63.50;;;;;;4445379;32;19962;-84
2022/12/02 14:21:46;;;;;;;;;;;19.30;63.50;;;;;;4432985;32;20062;-83
2022/12/02 14:24:11;;;;;;;;;;;19.30;63.50;;;;;;4445045;32;19982;-84
2022/12/02 14:26:37;;;;;;;;;;;19.30;63.50;;;;;;4445212;32;19985;-84